M I D A S
Marine Information and Data Acquisition System
Tripno 2121 of the Zeeleeuw from 2011-06-16 07:04:24 to 2011-06-16 16:24:50
Back to CruiseResearch ActivitiesStationsMapUnderway DataData graphs

EquipmentUnitsComment
TimeDGPSUTC
LatitudeDGPSDM.mWGS84
LongitudeDGPSDM.mWGS84
HeadingGyrodeg 
SOGDGPSknotsSpeed over ground
COGDGPSdegCourse over ground
DepthEcho soundermeters200 kHz
Missing or incorrect values are displayed as -999
Navigation data collected by the RV Zeeleeuw from 2011-06-16 06:53:31 to 2011-06-16 16:31:56
                                                                                    Next 1000 lines
Time Latitude Longitude Heading SOG COG Depth
2011-06-16 06:53:41 51°13.636 2°56.015 112.7 1.1 290 6.2
2011-06-16 06:53:47 51°13.637 2°56.011 112.6 1.7 291 6.4
2011-06-16 06:53:52 51°13.638 2°56.006 112.7 2.3 294 6.3
2011-06-16 06:53:57 51°13.64 2°56.001 113.3 2.7 292 4.8
2011-06-16 06:54:03 51°13.642 2°55.993 113.8 3.2 295 -999
2011-06-16 06:54:09 51°13.644 2°55.985 114.3 3.5 296 -999
2011-06-16 06:54:14 51°13.647 2°55.977 114.5 3.7 295 -999
2011-06-16 06:54:19 51°13.649 2°55.969 114.3 4 296 -999
2011-06-16 06:54:24 51°13.652 2°55.961 113.6 4.2 293 -999
2011-06-16 06:54:29 51°13.654 2°55.952 112.6 4.2 293 -999
2011-06-16 06:54:34 51°13.656 2°55.944 111.6 4.1 291 -999
2011-06-16 06:54:39 51°13.658 2°55.935 110.4 4.1 292 -999
2011-06-16 06:54:44 51°13.66 2°55.927 109.7 4.1 290 -999
2011-06-16 06:54:50 51°13.662 2°55.917 109.1 4.1 290 -999
2011-06-16 06:54:55 51°13.664 2°55.908 109 4 289 -999
2011-06-16 06:54:59 51°13.665 2°55.901 108.9 4 289 -999
2011-06-16 06:55:04 51°13.667 2°55.893 108.8 3.9 289 -999
2011-06-16 06:55:09 51°13.669 2°55.885 109 3.9 288 -999
2011-06-16 06:55:14 51°13.671 2°55.877 109 3.9 288 -999
2011-06-16 06:55:19 51°13.673 2°55.869 109 3.8 288 -999
2011-06-16 06:55:24 51°13.674 2°55.861 108.9 3.8 288 -999
2011-06-16 06:55:29 51°13.676 2°55.853 108.4 3.8 288 -999
2011-06-16 06:55:34 51°13.678 2°55.845 108.1 3.7 287 -999
2011-06-16 06:55:39 51°13.679 2°55.837 107.5 3.6 286 -999
2011-06-16 06:55:44 51°13.681 2°55.829 107 3.6 287 -999
2011-06-16 06:55:49 51°13.682 2°55.822 106.4 3.5 286 -999
2011-06-16 06:55:54 51°13.683 2°55.814 105.9 3.5 286 -999
2011-06-16 06:55:59 51°13.685 2°55.807 105.3 3.5 286 -999
2011-06-16 06:56:04 51°13.686 2°55.799 104.9 3.5 286 -999
2011-06-16 06:56:09 51°13.686 2°55.792 104.1 3.4 285 -999
2011-06-16 06:56:14 51°13.687 2°55.785 103.3 3.3 284 -999
2011-06-16 06:56:19 51°13.689 2°55.778 102.4 3.2 284 -999
2011-06-16 06:56:24 51°13.69 2°55.771 101.3 3.1 284 -999
2011-06-16 06:56:29 51°13.691 2°55.765 100.2 3 283 -999
2011-06-16 06:56:34 51°13.692 2°55.759 99.3 2.8 283 -999
2011-06-16 06:56:39 51°13.693 2°55.753 98.4 2.6 282 -999
2011-06-16 06:56:44 51°13.693 2°55.748 97.1 2.3 282 11
2011-06-16 06:56:49 51°13.694 2°55.745 96.1 1.7 282 10.9
2011-06-16 06:56:54 51°13.694 2°55.742 94.5 1.2 284 11
2011-06-16 06:56:59 51°13.694 2°55.741 92.6 0.7 300 10.8
2011-06-16 06:57:03 51°13.694 2°55.741 89.6 0.4 355 10.9
2011-06-16 06:57:08 51°13.695 2°55.741 85.4 0.6 40 10.9
2011-06-16 06:57:13 51°13.696 2°55.743 78.8 1 50 11.1
2011-06-16 06:57:18 51°13.697 2°55.745 73.7 1.2 50 11.6
2011-06-16 06:57:23 51°13.699 2°55.747 66.9 1.3 45 11.1
2011-06-16 06:57:27 51°13.7 2°55.749 60.5 1.3 45 11.4
2011-06-16 06:57:33 51°13.702 2°55.751 54.3 1.3 36 10.9
2011-06-16 06:57:39 51°13.703 2°55.752 50.8 1 31 10.9
2011-06-16 06:57:44 51°13.704 2°55.752 47.6 0.7 20 10.9
2011-06-16 06:57:48 51°13.704 2°55.752 44.1 0.2 347 10.9
2011-06-16 06:57:53 51°13.704 2°55.751 41.5 0.5 243 11.2
2011-06-16 06:57:58 51°13.703 2°55.749 38.3 1.1 224 10.9
2011-06-16 06:58:03 51°13.701 2°55.747 35.7 1.5 221 10.9
2011-06-16 06:58:08 51°13.699 2°55.745 33.4 1.8 217 11.1
2011-06-16 06:58:12 51°13.697 2°55.743 31.3 2 214 4.7
2011-06-16 06:58:18 51°13.694 2°55.74 28.8 2.1 212 -999
2011-06-16 06:58:24 51°13.692 2°55.737 26.5 1.9 210 -999
2011-06-16 06:58:29 51°13.689 2°55.736 25 1.8 208 -999
2011-06-16 06:58:34 51°13.688 2°55.734 23.9 1.3 213 -999
2011-06-16 06:58:39 51°13.687 2°55.733 22.6 0.5 222 -999
2011-06-16 06:58:44 51°13.687 2°55.733 20.1 0.3 329 -999
2011-06-16 06:58:49 51°13.689 2°55.733 15 1 354 -999
2011-06-16 06:58:54 51°13.691 2°55.732 10.1 1.8 358 10.4
2011-06-16 06:58:59 51°13.694 2°55.732 4.1 2.5 354 -999
2011-06-16 06:59:05 51°13.699 2°55.73 357.8 3.1 352 -999
2011-06-16 06:59:09 51°13.703 2°55.729 353.9 3.6 348 -999
2011-06-16 06:59:14 51°13.709 2°55.727 350.3 4.2 345 -999
2011-06-16 06:59:19 51°13.715 2°55.724 347.6 4.7 342 -999
2011-06-16 06:59:24 51°13.722 2°55.719 345.2 5.3 341 10.2
2011-06-16 06:59:29 51°13.73 2°55.715 343.4 5.6 340 10.4
2011-06-16 06:59:33 51°13.736 2°55.711 342.3 6.1 339 10
2011-06-16 06:59:39 51°13.746 2°55.705 341.3 6.6 339 9.7
2011-06-16 06:59:44 51°13.755 2°55.699 340.6 7.1 337 -999
2011-06-16 06:59:49 51°13.765 2°55.692 339.7 7.4 337 9.5
2011-06-16 06:59:54 51°13.775 2°55.685 339.1 7.8 336 9.7
2011-06-16 06:59:59 51°13.785 2°55.678 338.3 8 335 9.7
2011-06-16 07:00:04 51°13.795 2°55.67 337.3 8.2 335 9.5
2011-06-16 07:00:09 51°13.806 2°55.662 336.6 8.4 334 9.4
2011-06-16 07:00:14 51°13.816 2°55.654 335.8 8.6 335 -999
2011-06-16 07:00:19 51°13.827 2°55.646 335.9 8.7 334 -999
2011-06-16 07:00:24 51°13.838 2°55.638 336.3 8.8 335 -999
2011-06-16 07:00:29 51°13.849 2°55.629 336.5 8.9 334 -999
2011-06-16 07:00:34 51°13.86 2°55.62 335.6 8.9 333 -999
2011-06-16 07:00:39 51°13.871 2°55.611 334.7 8.9 333 -999
2011-06-16 07:00:44 51°13.882 2°55.602 334.2 8.9 333 -999
2011-06-16 07:00:49 51°13.893 2°55.593 334.8 8.8 334 9.4
2011-06-16 07:00:54 51°13.904 2°55.584 335.6 8.8 335 9.9
2011-06-16 07:00:59 51°13.915 2°55.576 336.2 8.8 335 -999
2011-06-16 07:01:04 51°13.926 2°55.568 336.8 8.8 336 -999
2011-06-16 07:01:09 51°13.938 2°55.56 337.6 8.7 337 -999
2011-06-16 07:01:14 51°13.949 2°55.553 338.4 8.7 338 -999
2011-06-16 07:01:19 51°13.96 2°55.546 339 8.7 337 9.6
2011-06-16 07:01:24 51°13.971 2°55.539 339 8.8 338 -999
2011-06-16 07:01:29 51°13.983 2°55.531 339 8.8 337 -999
2011-06-16 07:01:34 51°13.994 2°55.524 339.2 8.8 338 -999
2011-06-16 07:01:39 51°14.005 2°55.516 338.9 8.8 336 -999
2011-06-16 07:01:44 51°14.016 2°55.508 338.2 8.8 337 -999
2011-06-16 07:01:49 51°14.027 2°55.5 338.1 8.8 336 -999
2011-06-16 07:01:55 51°14.041 2°55.49 338.1 8.8 336 -999
2011-06-16 07:01:59 51°14.05 2°55.484 337.8 8.9 335 -999
2011-06-16 07:02:04 51°14.061 2°55.475 337 9 335 -999
2011-06-16 07:02:09 51°14.073 2°55.467 337 9.1 335 -999
2011-06-16 07:02:15 51°14.086 2°55.456 337.2 9.2 334 -999
2011-06-16 07:02:19 51°14.096 2°55.449 337.2 9.2 334 10.1
2011-06-16 07:02:24 51°14.107 2°55.44 336.8 9.3 334 9.6
2011-06-16 07:02:29 51°14.119 2°55.431 336.4 9.3 335 9.6
2011-06-16 07:02:34 51°14.131 2°55.423 336.5 9.3 335 9.6
2011-06-16 07:02:39 51°14.142 2°55.414 336.7 9.3 335 9.6
2011-06-16 07:02:44 51°14.154 2°55.405 336.9 9.4 335 9.6
2011-06-16 07:02:50 51°14.168 2°55.395 336.9 9.4 335 -999
2011-06-16 07:02:54 51°14.178 2°55.388 337.1 9.4 335 -999
2011-06-16 07:02:59 51°14.19 2°55.38 337.6 9.4 336 9.6
2011-06-16 07:03:04 51°14.202 2°55.371 338.2 9.4 336 -999
2011-06-16 07:03:09 51°14.214 2°55.363 338.2 9.4 335 -999
2011-06-16 07:03:14 51°14.226 2°55.354 337.7 9.4 335 9.5
2011-06-16 07:03:19 51°14.237 2°55.345 336.9 9.4 334 9.6
2011-06-16 07:03:23 51°14.247 2°55.338 336.6 9.5 334 9.3
2011-06-16 07:03:29 51°14.261 2°55.326 336.1 9.5 332 8.8
2011-06-16 07:03:34 51°14.272 2°55.316 335.1 9.5 331 8.8
2011-06-16 07:03:39 51°14.284 2°55.305 333.6 9.6 330 9.3
2011-06-16 07:03:44 51°14.295 2°55.294 332.3 9.6 329 9.3
2011-06-16 07:03:49 51°14.307 2°55.283 331.6 9.7 328 9.3
2011-06-16 07:03:55 51°14.32 2°55.268 330.3 9.8 327 -999
2011-06-16 07:04:00 51°14.332 2°55.257 329.1 9.8 327 9.4
2011-06-16 07:04:04 51°14.341 2°55.247 328.9 9.9 326 8.8
2011-06-16 07:04:09 51°14.352 2°55.234 328.4 9.9 325 9.6
2011-06-16 07:04:14 51°14.364 2°55.221 327.3 10.1 323 9.3
2011-06-16 07:04:19 51°14.375 2°55.207 326.1 10.2 324 -999
2011-06-16 07:04:24 51°14.386 2°55.194 325.8 10.3 323 -999
2011-06-16 07:04:29 51°14.398 2°55.18 325.3 10.4 322 9.3
2011-06-16 07:04:34 51°14.409 2°55.166 325.2 10.4 322 9.5
2011-06-16 07:04:39 51°14.42 2°55.151 324.7 10.5 320 -999
2011-06-16 07:04:44 51°14.431 2°55.136 323.2 10.5 320 -999
2011-06-16 07:04:49 51°14.443 2°55.121 322.5 10.5 321 9.3
2011-06-16 07:04:54 51°14.454 2°55.106 322.6 10.5 320 9.4
2011-06-16 07:04:59 51°14.465 2°55.091 322.3 10.6 320 9.5
2011-06-16 07:05:04 51°14.477 2°55.076 321.8 10.7 321 9.4
2011-06-16 07:05:08 51°14.486 2°55.064 321.6 10.8 319 9.6
2011-06-16 07:05:13 51°14.497 2°55.049 321.2 10.8 320 9.5
2011-06-16 07:05:18 51°14.509 2°55.033 321.2 10.9 319 9.7
2011-06-16 07:05:23 51°14.52 2°55.017 321.5 11 319 9.9
2011-06-16 07:05:28 51°14.532 2°55.001 321.7 11 317 10.4
2011-06-16 07:05:32 51°14.54 2°54.986 321.7 11.2 315 10.8
2011-06-16 07:05:38 51°14.553 2°54.964 321.2 11.5 313 10.6
2011-06-16 07:05:43 51°14.565 2°54.946 320.7 11.6 315 10.6
2011-06-16 07:05:48 51°14.577 2°54.929 322.8 11.7 318 10.6
2011-06-16 07:05:53 51°14.589 2°54.911 325.2 11.8 318 10.8
2011-06-16 07:05:57 51°14.599 2°54.899 327.2 11.8 323 10.4
2011-06-16 07:06:02 51°14.613 2°54.884 331.1 11.9 326 10.7
2011-06-16 07:06:07 51°14.627 2°54.87 334 12.1 328 10.6
2011-06-16 07:06:13 51°14.645 2°54.853 335.8 12.2 328 10.2
2011-06-16 07:06:17 51°14.656 2°54.841 336.8 12.4 328 10.3
2011-06-16 07:06:22 51°14.671 2°54.826 336.4 12.5 328 10.7
2011-06-16 07:06:27 51°14.686 2°54.811 335.8 12.7 326 10.5
2011-06-16 07:06:32 51°14.701 2°54.795 334.7 12.8 326 10.6
2011-06-16 07:06:37 51°14.715 2°54.778 333.4 12.8 324 11
2011-06-16 07:06:41 51°14.726 2°54.764 331.8 12.9 323 10.8
2011-06-16 07:06:46 51°14.74 2°54.747 331 12.9 322 10.3
2011-06-16 07:06:51 51°14.755 2°54.73 330.6 12.9 323 10.5
2011-06-16 07:06:56 51°14.769 2°54.713 330.7 12.9 324 10.9
2011-06-16 07:07:01 51°14.784 2°54.697 331.2 12.9 325 10.6
2011-06-16 07:07:05 51°14.796 2°54.684 331.9 12.9 325 10.8
2011-06-16 07:07:10 51°14.811 2°54.668 332.4 13 326 11.5
2011-06-16 07:07:16 51°14.829 2°54.648 332.6 13 326 10.7
2011-06-16 07:07:21 51°14.844 2°54.633 332.8 12.9 327 11.3
2011-06-16 07:07:25 51°14.856 2°54.62 333.1 13 327 11.4
2011-06-16 07:07:30 51°14.871 2°54.605 332.9 12.9 327 11.1
2011-06-16 07:07:36 51°14.889 2°54.586 332.5 12.9 327 11
2011-06-16 07:07:41 51°14.904 2°54.57 332.4 12.9 327 11.2
2011-06-16 07:07:45 51°14.916 2°54.558 332.4 12.9 327 10.4
2011-06-16 07:07:50 51°14.931 2°54.542 332.5 12.9 327 10.6
2011-06-16 07:07:55 51°14.946 2°54.527 333.2 12.8 328 10.9
2011-06-16 07:08:00 51°14.961 2°54.512 333.6 12.8 327 11.1
2011-06-16 07:08:05 51°14.976 2°54.497 333.6 12.8 327 10.8
2011-06-16 07:08:11 51°14.994 2°54.478 333.2 12.8 326 10.8
2011-06-16 07:08:16 51°15.008 2°54.462 332.6 12.8 327 11
2011-06-16 07:08:21 51°15.023 2°54.446 332.6 12.8 326 10.9
2011-06-16 07:08:26 51°15.038 2°54.431 332.4 12.8 326 11
2011-06-16 07:08:30 51°15.05 2°54.418 332.2 12.8 326 11.3
2011-06-16 07:08:36 51°15.067 2°54.398 332 12.9 325 11
2011-06-16 07:08:41 51°15.082 2°54.381 331.3 12.9 323 10.6
2011-06-16 07:08:46 51°15.096 2°54.364 330.3 12.9 323 10.8
2011-06-16 07:08:51 51°15.11 2°54.346 329.6 12.9 322 11
2011-06-16 07:08:56 51°15.124 2°54.329 328.8 12.9 321 11
2011-06-16 07:09:01 51°15.138 2°54.31 328.2 12.9 321 10.8
2011-06-16 07:09:06 51°15.152 2°54.292 327.7 12.9 321 11.1
2011-06-16 07:09:10 51°15.163 2°54.278 327.7 12.9 321 11.2
2011-06-16 07:09:16 51°15.179 2°54.255 327.6 12.9 320 11.3
2011-06-16 07:09:21 51°15.193 2°54.237 327.4 13 320 11.4
2011-06-16 07:09:26 51°15.207 2°54.218 327.4 13 320 11
2011-06-16 07:09:30 51°15.218 2°54.204 327.7 12.9 321 11.3
2011-06-16 07:09:36 51°15.235 2°54.183 328.5 12.9 322 11.2
2011-06-16 07:09:41 51°15.249 2°54.166 329.1 12.9 323 11
2011-06-16 07:09:46 51°15.264 2°54.149 330.2 12.9 323 11.3
2011-06-16 07:09:50 51°15.275 2°54.135 331.4 12.9 325 11.1
2011-06-16 07:09:55 51°15.29 2°54.119 332.3 12.9 325 11.3
2011-06-16 07:10:01 51°15.308 2°54.1 332.7 12.8 326 11
2011-06-16 07:10:06 51°15.322 2°54.084 332.8 12.9 325 11.2
2011-06-16 07:10:11 51°15.337 2°54.068 332.9 12.8 325 11.2
2011-06-16 07:10:16 51°15.351 2°54.051 332.7 12.9 325 11.1
2011-06-16 07:10:21 51°15.366 2°54.034 331.6 12.9 323 10.8
2011-06-16 07:10:26 51°15.38 2°54.017 331 12.9 323 10.7
2011-06-16 07:10:31 51°15.394 2°53.999 330.3 12.9 322 10.8
2011-06-16 07:10:36 51°15.408 2°53.981 329.6 12.9 321 11.2
2011-06-16 07:10:41 51°15.422 2°53.963 328.9 12.9 321 11
2011-06-16 07:10:46 51°15.435 2°53.944 327.8 13 319 10.9
2011-06-16 07:10:51 51°15.449 2°53.926 326.7 12.9 319 11.2
2011-06-16 07:10:56 51°15.462 2°53.907 326.3 13 318 11
2011-06-16 07:11:01 51°15.476 2°53.887 325.9 13 318 11.1
2011-06-16 07:11:06 51°15.489 2°53.869 325.8 13 319 11.2
2011-06-16 07:11:11 51°15.503 2°53.85 326 13 318 11.1
2011-06-16 07:11:16 51°15.516 2°53.831 325.8 13 319 11.1
2011-06-16 07:11:21 51°15.53 2°53.812 326.2 13 319 10.6
2011-06-16 07:11:26 51°15.543 2°53.794 326.4 13 320 10.6
2011-06-16 07:11:30 51°15.555 2°53.779 326.5 13 320 10.9
2011-06-16 07:11:35 51°15.568 2°53.76 326.2 12.9 319 10.7
2011-06-16 07:11:41 51°15.584 2°53.738 325.6 12.9 319 10.9
2011-06-16 07:11:46 51°15.598 2°53.719 325.6 12.9 319 10.8
2011-06-16 07:11:50 51°15.609 2°53.704 326.1 12.9 320 11.1
2011-06-16 07:11:55 51°15.623 2°53.686 326.4 12.9 320 10.8
2011-06-16 07:12:01 51°15.639 2°53.664 327.4 12.9 322 11.2
2011-06-16 07:12:06 51°15.654 2°53.647 328.6 12.9 322 11.2
2011-06-16 07:12:10 51°15.665 2°53.634 329.9 12.8 324 11.5
2011-06-16 07:12:16 51°15.682 2°53.613 330.6 12.9 324 11.3
2011-06-16 07:12:20 51°15.694 2°53.601 331.4 12.8 325 11.3
2011-06-16 07:12:26 51°15.711 2°53.581 331.8 12.8 324 11.2
2011-06-16 07:12:30 51°15.723 2°53.567 331.9 12.9 325 11.1
2011-06-16 07:12:36 51°15.741 2°53.547 332.1 12.9 324 10.9
2011-06-16 07:12:41 51°15.755 2°53.531 332.1 12.9 324 10.8
2011-06-16 07:12:47 51°15.772 2°53.51 331.6 12.9 323 10.9
2011-06-16 07:12:51 51°15.783 2°53.496 330.6 12.8 322 10.9
2011-06-16 07:12:56 51°15.797 2°53.478 329.7 12.9 320 10.9
2011-06-16 07:13:01 51°15.811 2°53.459 328.7 13 319 10.9
2011-06-16 07:13:06 51°15.824 2°53.44 327.4 12.9 318 10.9
2011-06-16 07:13:11 51°15.837 2°53.422 326.8 12.9 319 10.9
2011-06-16 07:13:16 51°15.851 2°53.402 326.1 12.9 318 11.2
2011-06-16 07:13:21 51°15.864 2°53.383 325.8 12.9 318 11
2011-06-16 07:13:26 51°15.878 2°53.365 326 12.9 318 10.8
2011-06-16 07:13:31 51°15.891 2°53.346 325.9 12.9 318 11.1
2011-06-16 07:13:35 51°15.902 2°53.331 327.4 12.8 322 10.9
2011-06-16 07:13:41 51°15.919 2°53.311 328.9 12.8 323 10.8
2011-06-16 07:13:46 51°15.934 2°53.295 330.7 12.7 324 10.8
2011-06-16 07:13:51 51°15.948 2°53.28 332.8 12.7 326 10.8
2011-06-16 07:13:56 51°15.963 2°53.264 334.4 12.7 327 10.8
2011-06-16 07:14:01 51°15.978 2°53.25 335.8 12.7 329 10.6
2011-06-16 07:14:06 51°15.993 2°53.236 336.9 12.6 330 10.6
2011-06-16 07:14:11 51°16.008 2°53.222 338.2 12.6 330 10.7
2011-06-16 07:14:16 51°16.024 2°53.209 338.8 12.6 331 10.8
2011-06-16 07:14:21 51°16.039 2°53.195 339.2 12.6 330 10.6
2011-06-16 07:14:26 51°16.054 2°53.181 339 12.6 330 10.8
2011-06-16 07:14:31 51°16.07 2°53.167 338.7 12.6 330 11.2
2011-06-16 07:14:36 51°16.085 2°53.153 338.1 12.6 329 10.8
2011-06-16 07:14:40 51°16.097 2°53.141 337.6 12.7 328 10.5
2011-06-16 07:14:45 51°16.111 2°53.126 336.9 12.7 328 10.7
2011-06-16 07:14:51 51°16.129 2°53.108 336.1 12.7 326 10.8
2011-06-16 07:14:56 51°16.144 2°53.092 335.4 12.7 326 11.1
2011-06-16 07:15:00 51°16.155 2°53.079 334.7 12.7 325 11.1
2011-06-16 07:15:05 51°16.17 2°53.063 334.2 12.8 325 10.9
2011-06-16 07:15:10 51°16.186 2°53.045 333.8 12.8 325 10.9
2011-06-16 07:15:16 51°16.203 2°53.025 333.6 12.8 324 11
2011-06-16 07:15:21 51°16.218 2°53.009 333.2 12.8 325 11
2011-06-16 07:15:26 51°16.232 2°52.993 332.9 12.8 325 11.1
2011-06-16 07:15:31 51°16.247 2°52.978 334.9 12.7 328 11.1
2011-06-16 07:15:36 51°16.262 2°52.963 336.1 12.7 329 11.1
2011-06-16 07:15:41 51°16.278 2°52.95 337.6 12.6 331 11.1
2011-06-16 07:15:46 51°16.293 2°52.937 339.6 12.6 332 11
2011-06-16 07:15:51 51°16.308 2°52.924 341.1 12.6 333 11.1
2011-06-16 07:15:56 51°16.324 2°52.911 341.9 12.6 333 11.1
2011-06-16 07:16:01 51°16.338 2°52.9 342.6 12.6 334 11
2011-06-16 07:16:05 51°16.35 2°52.889 342.6 12.5 334 11
2011-06-16 07:16:10 51°16.365 2°52.878 343 12.5 335 11
2011-06-16 07:16:15 51°16.381 2°52.869 343.4 12.6 336 11.1
2011-06-16 07:16:20 51°16.398 2°52.857 343.8 12.6 337 10.9
2011-06-16 07:16:25 51°16.414 2°52.846 344.1 12.6 337 11
2011-06-16 07:16:29 51°16.427 2°52.838 344 12.6 337 10.9
2011-06-16 07:16:36 51°16.449 2°52.823 343.7 12.5 338 11
2011-06-16 07:16:41 51°16.465 2°52.812 343.8 12.5 338 10.9
2011-06-16 07:16:46 51°16.481 2°52.803 344.2 12.4 339 10.9
2011-06-16 07:16:50 51°16.494 2°52.795 344.6 12.2 340 10.9
2011-06-16 07:16:56 51°16.513 2°52.783 344.6 12.2 338 10.7
2011-06-16 07:17:00 51°16.525 2°52.775 343.7 12.2 338 10.7
2011-06-16 07:17:06 51°16.544 2°52.761 342.6 12.4 336 10.7
2011-06-16 07:17:11 51°16.56 2°52.75 341.5 12.5 335 10.6
2011-06-16 07:17:16 51°16.576 2°52.737 340.3 12.7 334 10.5
2011-06-16 07:17:21 51°16.592 2°52.725 339.4 12.7 334 10.4
2011-06-16 07:17:26 51°16.607 2°52.713 338.9 12.6 334 10.5
2011-06-16 07:17:30 51°16.62 2°52.704 339.5 12.4 336 10.4
2011-06-16 07:17:35 51°16.635 2°52.693 340.6 12.2 336 10.3
2011-06-16 07:17:40 51°16.651 2°52.682 341.2 12.1 338 10.1
2011-06-16 07:17:46 51°16.67 2°52.671 342.9 12.2 339 9.9
2011-06-16 07:17:50 51°16.683 2°52.663 344.2 12.3 340 9.6
2011-06-16 07:17:55 51°16.699 2°52.654 345.3 12.4 342 9.7
2011-06-16 07:18:01 51°16.719 2°52.644 346.8 12.4 342 9.5
2011-06-16 07:18:06 51°16.735 2°52.637 347.9 12.2 343 9.1
2011-06-16 07:18:10 51°16.748 2°52.63 348.1 12.1 343 8.8
2011-06-16 07:18:16 51°16.767 2°52.621 348.4 11.9 343 8.9
2011-06-16 07:18:20 51°16.779 2°52.615 348.3 11.8 343 8.9
2011-06-16 07:18:25 51°16.795 2°52.607 348.1 11.9 342 9
2011-06-16 07:18:31 51°16.814 2°52.597 347.6 12 341 8.9
2011-06-16 07:18:35 51°16.826 2°52.589 346.5 12.1 340 8.8
2011-06-16 07:18:41 51°16.845 2°52.578 345.1 12.2 338 8.8
2011-06-16 07:18:46 51°16.861 2°52.567 343.7 12.2 338 9
2011-06-16 07:18:51 51°16.877 2°52.558 343.5 12.1 338 9.1
2011-06-16 07:18:56 51°16.892 2°52.549 344.7 12 340 9
2011-06-16 07:19:01 51°16.908 2°52.54 345.4 12 341 8.9
2011-06-16 07:19:06 51°16.924 2°52.532 346.8 12 342 9.1
2011-06-16 07:19:11 51°16.94 2°52.524 347.8 12 343 9
2011-06-16 07:19:15 51°16.953 2°52.519 348.7 12 344 8.6
2011-06-16 07:19:20 51°16.969 2°52.512 349.9 12.1 347 8.8
2011-06-16 07:19:26 51°16.989 2°52.506 351.8 12.1 348 8.8
2011-06-16 07:19:31 51°17.005 2°52.5 353 12.1 348 8.7
2011-06-16 07:19:35 51°17.018 2°52.496 353.9 12 349 8.8
2011-06-16 07:19:41 51°17.037 2°52.49 354.3 11.9 349 8.7
2011-06-16 07:19:46 51°17.054 2°52.485 354 11.9 348 8.7
2011-06-16 07:19:51 51°17.07 2°52.479 353.6 11.8 348 9
2011-06-16 07:19:55 51°17.082 2°52.474 352.9 11.9 346 8.9
2011-06-16 07:20:01 51°17.102 2°52.466 352 12 346 8.9
2011-06-16 07:20:06 51°17.118 2°52.459 351 12.1 345 8.9
2011-06-16 07:20:11 51°17.134 2°52.451 350.4 12.1 344 9
2011-06-16 07:20:16 51°17.15 2°52.444 349.9 12.1 344 9.1
2011-06-16 07:20:21 51°17.166 2°52.436 349.2 12.1 343 9
2011-06-16 07:20:26 51°17.182 2°52.428 348.5 12 342 9.1
2011-06-16 07:20:31 51°17.198 2°52.419 347.9 12.1 341 9.1
2011-06-16 07:20:35 51°17.211 2°52.412 347.6 12.1 341 9
2011-06-16 07:20:41 51°17.23 2°52.402 347.4 12.1 341 9.2
2011-06-16 07:20:46 51°17.246 2°52.393 347.1 12.2 342 9.2
2011-06-16 07:20:51 51°17.262 2°52.385 347 12.1 342 9.2
2011-06-16 07:20:55 51°17.275 2°52.38 348.3 12.1 346 9.4
2011-06-16 07:21:01 51°17.295 2°52.375 352.4 12 350 9.5
2011-06-16 07:21:06 51°17.311 2°52.371 355.5 11.9 352 9.5
2011-06-16 07:21:11 51°17.327 2°52.369 358 11.8 355 9.5
2011-06-16 07:21:15 51°17.34 2°52.368 0.2 11.8 358 9.4
2011-06-16 07:21:21 51°17.36 2°52.368 2.3 11.8 359 9.6
2011-06-16 07:21:26 51°17.376 2°52.369 4.9 11.8 2 9.5
2011-06-16 07:21:31 51°17.393 2°52.37 6.4 11.8 3 9.6
2011-06-16 07:21:35 51°17.406 2°52.372 8.2 11.8 4 9.5
2011-06-16 07:21:40 51°17.422 2°52.374 8.9 11.7 5 9.5
2011-06-16 07:21:46 51°17.441 2°52.378 9.6 11.7 7 9.6
2011-06-16 07:21:51 51°17.457 2°52.381 10 11.8 7 9.7
2011-06-16 07:21:55 51°17.47 2°52.386 12.4 11.7 14 9.4
2011-06-16 07:22:00 51°17.486 2°52.394 17.7 11.7 18 9.5
2011-06-16 07:22:06 51°17.504 2°52.405 21.9 11.5 21 9.5
2011-06-16 07:22:11 51°17.518 2°52.415 24.2 11.4 23 9.5
2011-06-16 07:22:15 51°17.529 2°52.424 26 11.5 25 9.4
2011-06-16 07:22:20 51°17.544 2°52.435 27.7 11.6 27 9.5
2011-06-16 07:22:25 51°17.558 2°52.448 29.8 11.6 29 9.7
2011-06-16 07:22:30 51°17.572 2°52.46 31.3 11.5 30 9.5
2011-06-16 07:22:36 51°17.588 2°52.476 32.2 11.5 31 9.4
2011-06-16 07:22:41 51°17.602 2°52.49 32.3 11.7 32 9.7
2011-06-16 07:22:46 51°17.616 2°52.504 33.7 11.7 34 9.4
2011-06-16 07:22:51 51°17.629 2°52.519 35.7 11.6 35 9.6
2011-06-16 07:22:56 51°17.642 2°52.534 36.4 11.6 36 9.4
2011-06-16 07:23:00 51°17.652 2°52.546 37 11.7 36 9.6
2011-06-16 07:23:06 51°17.668 2°52.565 37.7 11.7 38 9.3
2011-06-16 07:23:11 51°17.68 2°52.581 39.3 11.6 38 9.5
2011-06-16 07:23:15 51°17.69 2°52.594 39.6 11.6 39 9.5
2011-06-16 07:23:20 51°17.703 2°52.611 40.2 11.7 40 9.5
2011-06-16 07:23:25 51°17.715 2°52.628 41.2 11.7 42 9.5
2011-06-16 07:23:31 51°17.73 2°52.648 42 11.7 41 9.5
2011-06-16 07:23:36 51°17.742 2°52.666 42.4 11.7 43 9.5
2011-06-16 07:23:40 51°17.751 2°52.68 43.3 11.7 42 9.3
2011-06-16 07:23:44 51°17.761 2°52.694 43.5 11.6 43 9.4
2011-06-16 07:23:51 51°17.778 2°52.718 43.6 11.6 42 9.2
2011-06-16 07:23:56 51°17.79 2°52.735 43.5 11.7 43 9.6
2011-06-16 07:24:01 51°17.802 2°52.752 43.1 11.6 41 9.4
2011-06-16 07:24:05 51°17.811 2°52.766 43 11.6 42 9.5
2011-06-16 07:24:10 51°17.823 2°52.782 42.2 11.6 40 9.4
2011-06-16 07:24:16 51°17.838 2°52.803 42.2 11.6 42 9.5
2011-06-16 07:24:21 51°17.85 2°52.819 41.7 11.6 40 9.4
2011-06-16 07:24:25 51°17.86 2°52.834 42.2 11.6 43 9.5
2011-06-16 07:24:31 51°17.875 2°52.854 42.1 11.6 41 9.5
2011-06-16 07:24:36 51°17.887 2°52.872 43 11.6 45 9.7
2011-06-16 07:24:41 51°17.898 2°52.89 44.6 11.6 44 9.4
2011-06-16 07:24:45 51°17.907 2°52.905 46.3 11.6 47 9.6
2011-06-16 07:24:51 51°17.921 2°52.928 46.9 11.7 48 9.5
2011-06-16 07:24:56 51°17.932 2°52.947 48 11.7 46 9.7
2011-06-16 07:25:01 51°17.943 2°52.966 47.6 11.7 47 9.5
2011-06-16 07:25:05 51°17.952 2°52.981 47.2 11.7 46 9.7
2011-06-16 07:25:11 51°17.966 2°53.003 46.5 11.7 45 9.6
2011-06-16 07:25:16 51°17.976 2°53.022 46.5 11.6 46 9.7
2011-06-16 07:25:21 51°17.988 2°53.039 45.8 11.6 44 9.7
2011-06-16 07:25:26 51°18 2°53.058 45.2 11.7 45 9.7
2011-06-16 07:25:31 51°18.012 2°53.075 44.4 11.7 42 9.6
2011-06-16 07:25:36 51°18.024 2°53.093 44.2 11.6 44 9.7
2011-06-16 07:25:40 51°18.033 2°53.106 43 11.6 41 9.7
2011-06-16 07:25:46 51°18.046 2°53.127 42.5 11.6 43 9.7
2011-06-16 07:25:51 51°18.059 2°53.143 42.8 11.5 39 9.7
2011-06-16 07:25:56 51°18.071 2°53.16 42.1 11.6 42 9.7
2011-06-16 07:26:00 51°18.081 2°53.173 41.9 11.6 39 9.7
2011-06-16 07:26:06 51°18.095 2°53.194 41.6 11.7 43 9.7
2011-06-16 07:26:10 51°18.105 2°53.207 42.4 11.6 40 9.7
2011-06-16 07:26:15 51°18.118 2°53.224 41.9 11.6 42 9.8
2011-06-16 07:26:20 51°18.13 2°53.24 42.3 11.6 40 9.7
2011-06-16 07:26:26 51°18.144 2°53.262 43.1 11.6 44 9.6
2011-06-16 07:26:31 51°18.156 2°53.279 44 11.6 43 9.7
2011-06-16 07:26:36 51°18.167 2°53.297 44.4 11.6 45 9.7
2011-06-16 07:26:41 51°18.179 2°53.315 45.1 11.6 45 9.6
2011-06-16 07:26:46 51°18.19 2°53.334 45.9 11.5 46 9.7
2011-06-16 07:26:51 51°18.201 2°53.352 47.4 11.6 47 9.9
2011-06-16 07:26:55 51°18.21 2°53.367 48 11.6 48 9.7
2011-06-16 07:27:01 51°18.222 2°53.391 48.7 11.7 49 9.9
2011-06-16 07:27:06 51°18.233 2°53.41 48.7 11.6 48 9.9
2011-06-16 07:27:11 51°18.244 2°53.429 49.4 11.6 48 9.8
2011-06-16 07:27:16 51°18.255 2°53.448 48.6 11.6 47 9.8
2011-06-16 07:27:21 51°18.265 2°53.467 48.6 11.6 48 9.8
2011-06-16 07:27:26 51°18.277 2°53.485 47.8 11.6 44 9.9
2011-06-16 07:27:31 51°18.288 2°53.503 46.3 11.6 45 9.9
2011-06-16 07:27:36 51°18.3 2°53.52 45.7 11.6 43 9.9
2011-06-16 07:27:41 51°18.312 2°53.538 44.6 11.5 44 10
2011-06-16 07:27:46 51°18.323 2°53.556 45 11.6 43 9.9
2011-06-16 07:27:51 51°18.335 2°53.573 44.4 11.6 43 10
2011-06-16 07:27:55 51°18.345 2°53.587 43.6 11.6 42 9.9
2011-06-16 07:28:01 51°18.359 2°53.607 43.1 11.5 42 10
2011-06-16 07:28:06 51°18.371 2°53.623 43.1 11.5 40 10
2011-06-16 07:28:11 51°18.383 2°53.64 42.1 11.5 40 10.1
2011-06-16 07:28:15 51°18.393 2°53.654 42.5 11.6 42 10.2
2011-06-16 07:28:21 51°18.407 2°53.674 42.8 11.6 42 10.1
2011-06-16 07:28:26 51°18.419 2°53.692 44.1 11.5 44 10.2
2011-06-16 07:28:31 51°18.43 2°53.71 45.3 11.5 44 10.1
2011-06-16 07:28:36 51°18.441 2°53.728 46 11.6 45 10.1
2011-06-16 07:28:41 51°18.453 2°53.747 46.1 11.6 45 10.2
2011-06-16 07:28:46 51°18.463 2°53.765 46.6 11.5 47 10.1
2011-06-16 07:28:51 51°18.474 2°53.784 47.5 11.5 46 10.1
2011-06-16 07:28:55 51°18.483 2°53.799 48.5 11.6 49 10.2
2011-06-16 07:29:01 51°18.496 2°53.822 48.6 11.6 46 10.2
2011-06-16 07:29:06 51°18.507 2°53.841 48.5 11.5 49 10.2
2011-06-16 07:29:11 51°18.517 2°53.86 48.7 11.5 49 10.2
2011-06-16 07:29:15 51°18.525 2°53.876 50.1 11.6 51 10
2011-06-16 07:29:21 51°18.537 2°53.9 51.2 11.6 52 10.2
2011-06-16 07:29:26 51°18.547 2°53.921 53.3 11.5 54 10.3
2011-06-16 07:29:31 51°18.556 2°53.941 53.6 11.5 54 10.2
2011-06-16 07:29:36 51°18.565 2°53.963 54.7 11.6 55 10.3
2011-06-16 07:29:40 51°18.572 2°53.979 55.5 11.5 57 10.2
2011-06-16 07:29:46 51°18.582 2°54.005 56.2 11.5 57 10.3
2011-06-16 07:29:51 51°18.591 2°54.027 57.1 11.6 58 10.3
2011-06-16 07:29:55 51°18.598 2°54.045 57.6 11.5 58 10.2
2011-06-16 07:30:00 51°18.606 2°54.066 57.4 11.5 56 10.2
2011-06-16 07:30:06 51°18.617 2°54.092 56.7 11.6 57 10.1
2011-06-16 07:30:11 51°18.626 2°54.113 57.3 11.5 58 10.2
2011-06-16 07:30:16 51°18.635 2°54.134 56.9 11.4 55 10.2
2011-06-16 07:30:21 51°18.644 2°54.155 55.1 11.5 55 10.3
2011-06-16 07:30:26 51°18.654 2°54.175 54.7 11.5 53 10.3
2011-06-16 07:30:31 51°18.663 2°54.195 53.9 11.5 54 10.2
2011-06-16 07:30:36 51°18.673 2°54.215 53.2 11.5 52 10.3
2011-06-16 07:30:40 51°18.681 2°54.231 52.3 11.5 51 10.3
2011-06-16 07:30:46 51°18.693 2°54.255 52.3 11.5 52 10.2
2011-06-16 07:30:51 51°18.703 2°54.275 52.3 11.5 50 10.3
2011-06-16 07:30:56 51°18.713 2°54.295 51.6 11.5 51 10.2
2011-06-16 07:31:00 51°18.721 2°54.311 52.4 11.6 51 10.2
2011-06-16 07:31:06 51°18.733 2°54.335 52.3 11.5 51 10.3
2011-06-16 07:31:11 51°18.743 2°54.355 52.2 11.5 53 10.4
2011-06-16 07:31:16 51°18.753 2°54.375 53 11.6 52 10.3
2011-06-16 07:31:21 51°18.762 2°54.396 53.3 11.6 54 10.3
2011-06-16 07:31:25 51°18.769 2°54.412 54.2 11.5 53 10.3
2011-06-16 07:31:31 51°18.781 2°54.437 53.8 11.5 52 10.4
2011-06-16 07:31:36 51°18.791 2°54.457 53.3 11.5 52 10.4
2011-06-16 07:31:40 51°18.799 2°54.473 52.9 11.5 52 10.4
2011-06-16 07:31:45 51°18.809 2°54.492 52.3 11.5 50 10.4
2011-06-16 07:31:50 51°18.819 2°54.512 51.6 11.5 51 10.4
2011-06-16 07:31:56 51°18.831 2°54.536 51.5 11.5 51 10.5
2011-06-16 07:32:00 51°18.839 2°54.552 51.7 11.5 51 10.4
2011-06-16 07:32:05 51°18.849 2°54.571 52.2 11.5 51 10.5
2011-06-16 07:32:10 51°18.859 2°54.591 51.6 11.5 51 10.5
2011-06-16 07:32:16 51°18.871 2°54.615 52.3 11.5 51 10.5
2011-06-16 07:32:20 51°18.879 2°54.631 52.3 11.4 52 10.6
2011-06-16 07:32:25 51°18.889 2°54.651 52.3 11.5 52 10.5
2011-06-16 07:32:31 51°18.901 2°54.675 53.1 11.5 53 10.5
2011-06-16 07:32:36 51°18.911 2°54.695 53.2 11.5 53 10.5
2011-06-16 07:32:40 51°18.918 2°54.712 53.8 11.5 55 10.5
2011-06-16 07:32:46 51°18.929 2°54.737 55 11.5 55 10.4
2011-06-16 07:32:51 51°18.938 2°54.758 55.7 11.5 56 10.5
2011-06-16 07:32:56 51°18.947 2°54.779 56.6 11.5 57 10.5
2011-06-16 07:33:00 51°18.953 2°54.796 57.4 11.4 58 10.5
2011-06-16 07:33:06 51°18.963 2°54.822 57.5 11.4 58 10.6
2011-06-16 07:33:10 51°18.97 2°54.839 58.1 11.5 58 10.6
2011-06-16 07:33:16 51°18.98 2°54.865 58.5 11.4 58 10.6
2011-06-16 07:33:20 51°18.987 2°54.882 58.4 11.4 57 10.5
2011-06-16 07:33:25 51°18.996 2°54.903 58.2 11.4 58 10.6
2011-06-16 07:33:31 51°19.006 2°54.929 57.8 11.4 57 10.6
2011-06-16 07:33:36 51°19.015 2°54.949 57.7 11.3 55 10.6
2011-06-16 07:33:41 51°19.024 2°54.97 56.3 11.3 54 10.6
2011-06-16 07:33:45 51°19.031 2°54.986 55.6 11.4 55 10.5
2011-06-16 07:33:51 51°19.042 2°55.01 55.4 11.3 54 10.5
2011-06-16 07:33:56 51°19.051 2°55.031 55.8 11.3 55 10.5
2011-06-16 07:34:01 51°19.06 2°55.052 56 11.4 55 10.6
2011-06-16 07:34:05 51°19.067 2°55.068 56.5 11.3 57 10.6
2011-06-16 07:34:10 51°19.076 2°55.089 57.3 11.2 56 10.6
2011-06-16 07:34:16 51°19.087 2°55.114 57.3 11.3 55 10.5
2011-06-16 07:34:21 51°19.095 2°55.134 56.7 11.3 56 10.6
2011-06-16 07:34:25 51°19.102 2°55.151 56.8 11.2 56 10.7
2011-06-16 07:34:30 51°19.111 2°55.171 56.8 11.1 55 10.6
2011-06-16 07:34:35 51°19.12 2°55.192 57 11.2 56 10.6
2011-06-16 07:34:40 51°19.129 2°55.213 57.1 11.3 56 10.6
2011-06-16 07:34:45 51°19.138 2°55.233 57.1 11.2 55 10.6
2011-06-16 07:34:51 51°19.149 2°55.257 55.8 11.2 53 10.6
2011-06-16 07:34:56 51°19.159 2°55.276 54.8 11.3 50 10.7
2011-06-16 07:35:01 51°19.168 2°55.296 53.5 11.3 51 10.7
2011-06-16 07:35:06 51°19.179 2°55.315 52.8 11.2 50 10.6
2011-06-16 07:35:10 51°19.187 2°55.329 51.7 11.2 48 10.6
2011-06-16 07:35:15 51°19.197 2°55.349 51.3 11.3 50 10.7
2011-06-16 07:35:21 51°19.21 2°55.371 51.5 11.3 47 10.7
2011-06-16 07:35:26 51°19.22 2°55.39 50.8 11.2 49 10.7
2011-06-16 07:35:30 51°19.228 2°55.404 51.4 11.3 47 10.6
2011-06-16 07:35:35 51°19.239 2°55.423 51 11.3 49 10.7
2011-06-16 07:35:40 51°19.249 2°55.442 51 11.3 49 10.8
2011-06-16 07:35:46 51°19.261 2°55.465 51.6 11.3 49 10.8
2011-06-16 07:35:50 51°19.269 2°55.479 50.7 11.2 48 10.7
2011-06-16 07:35:55 51°19.28 2°55.498 50.8 11.2 51 10.7
2011-06-16 07:36:01 51°19.29 2°55.523 54 11.2 56 10.9
2011-06-16 07:36:06 51°19.299 2°55.544 56.6 11.2 57 10.8
2011-06-16 07:36:11 51°19.307 2°55.565 59.5 11.2 60 10.7
2011-06-16 07:36:16 51°19.314 2°55.587 61.6 11.3 63 10.8
2011-06-16 07:36:21 51°19.32 2°55.61 63.3 11.2 65 10.8
2011-06-16 07:36:26 51°19.327 2°55.632 65.5 11.2 66 10.7
2011-06-16 07:36:30 51°19.332 2°55.65 66.2 11.3 67 10.8
2011-06-16 07:36:35 51°19.337 2°55.674 67 11.3 68 10.8
2011-06-16 07:36:40 51°19.343 2°55.697 67.3 11.2 68 10.7
2011-06-16 07:36:46 51°19.349 2°55.725 68.7 11.3 71 10.7
2011-06-16 07:36:51 51°19.355 2°55.748 69.2 11.4 67 10.7
2011-06-16 07:36:56 51°19.361 2°55.771 68 11.2 68 10.6
2011-06-16 07:37:00 51°19.366 2°55.79 67.7 11.1 68 10.6
2011-06-16 07:37:06 51°19.373 2°55.818 68.3 11.2 69 10.5
2011-06-16 07:37:11 51°19.379 2°55.841 67.6 11.3 66 10.8
2011-06-16 07:37:16 51°19.385 2°55.863 66 11.2 66 10.7
2011-06-16 07:37:20 51°19.39 2°55.882 66.1 11.3 66 10.6
2011-06-16 07:37:26 51°19.398 2°55.909 66.2 11.4 66 10.7
2011-06-16 07:37:30 51°19.403 2°55.928 66.1 11.3 66 10.6
2011-06-16 07:37:36 51°19.41 2°55.955 66.4 11.3 68 10.6
2011-06-16 07:37:40 51°19.415 2°55.974 66.9 11.4 67 10.6
2011-06-16 07:37:45 51°19.421 2°55.997 67.4 11.4 68 10.6
2011-06-16 07:37:51 51°19.428 2°56.025 67.6 11.2 68 10.5
2011-06-16 07:37:56 51°19.434 2°56.049 68.4 11.3 69 10.6
2011-06-16 07:38:01 51°19.44 2°56.071 67.6 11.3 67 10.7
2011-06-16 07:38:05 51°19.445 2°56.09 67.4 11.3 68 10.7
2011-06-16 07:38:11 51°19.452 2°56.118 67.4 11.3 66 10.6
2011-06-16 07:38:16 51°19.458 2°56.141 67.1 11.3 67 10.5
2011-06-16 07:38:21 51°19.465 2°56.163 66.9 11.3 65 10.5
2011-06-16 07:38:25 51°19.47 2°56.181 66.2 11.2 66 10.6
2011-06-16 07:38:30 51°19.476 2°56.204 66.1 11.2 65 10.4
2011-06-16 07:38:36 51°19.484 2°56.231 65.5 11.1 64 10.5
2011-06-16 07:38:41 51°19.491 2°56.253 64.8 11.1 63 10.5
2011-06-16 07:38:46 51°19.498 2°56.275 64.4 11.2 63 10.5
2011-06-16 07:38:51 51°19.506 2°56.297 63.3 11.2 62 10.4
2011-06-16 07:38:56 51°19.513 2°56.319 63.2 11.2 62 10.4
2011-06-16 07:39:01 51°19.521 2°56.34 62.5 11.2 61 10.5
2011-06-16 07:39:06 51°19.528 2°56.361 62 11.1 61 10.4
2011-06-16 07:39:10 51°19.534 2°56.379 62.5 11.2 62 10.6
2011-06-16 07:39:15 51°19.541 2°56.401 62.5 11.2 62 10.5
2011-06-16 07:39:21 51°19.55 2°56.427 63.2 11.1 64 10.5
2011-06-16 07:39:25 51°19.555 2°56.445 64.8 11.2 66 10.6
2011-06-16 07:39:30 51°19.561 2°56.468 65.9 11.2 65 10.5
2011-06-16 07:39:36 51°19.568 2°56.495 66.3 11.1 67 10.5
2011-06-16 07:39:41 51°19.575 2°56.518 67.5 11.1 67 10.4
2011-06-16 07:39:46 51°19.581 2°56.541 67.4 11.2 67 10.5
2011-06-16 07:39:51 51°19.587 2°56.563 67 11.1 67 10.4
2011-06-16 07:39:56 51°19.593 2°56.586 67.5 11.1 68 10.4
2011-06-16 07:40:01 51°19.599 2°56.609 67.7 11.2 67 10.5
2011-06-16 07:40:06 51°19.605 2°56.631 67.6 11.1 67 10.5
2011-06-16 07:40:11 51°19.61 2°56.654 67.8 11.1 68 10.5
2011-06-16 07:40:15 51°19.615 2°56.673 68.8 11.3 69 10.5
2011-06-16 07:40:21 51°19.622 2°56.7 68.3 11.2 67 10.5
2011-06-16 07:40:26 51°19.627 2°56.723 68.5 11.1 69 10.4
2011-06-16 07:40:31 51°19.634 2°56.746 68.1 11.2 66 10.5
2011-06-16 07:40:35 51°19.639 2°56.764 66.9 11.2 65 10.5
2011-06-16 07:40:40 51°19.646 2°56.786 65.9 11.2 63 10.5
2011-06-16 07:40:45 51°19.653 2°56.808 64 11.1 62 10.5
2011-06-16 07:40:51 51°19.662 2°56.834 63.7 11.2 63 10.5
2011-06-16 07:40:55 51°19.668 2°56.852 63.5 11.2 61 10.5
2011-06-16 07:40:59 51°19.673 2°56.869 62.6 11.2 62 10.4
2011-06-16 07:41:06 51°19.684 2°56.899 62.6 11.1 61 10.5
2011-06-16 07:41:10 51°19.69 2°56.916 62.2 11.1 60 10.5
2011-06-16 07:41:15 51°19.698 2°56.938 62.4 11.2 62 10.6
2011-06-16 07:41:21 51°19.707 2°56.964 62.6 11.2 61 10.4
2011-06-16 07:41:26 51°19.713 2°56.986 62.9 11.1 63 10.5
2011-06-16 07:41:31 51°19.72 2°57.008 64.1 11.1 64 10.4
2011-06-16 07:41:36 51°19.727 2°57.03 65.2 11.2 64 10.5
2011-06-16 07:41:40 51°19.732 2°57.049 65.7 11.1 66 10.4
2011-06-16 07:41:46 51°19.739 2°57.076 66.5 11.2 66 10.4
2011-06-16 07:41:51 51°19.745 2°57.099 66.9 11.2 67 10.5
2011-06-16 07:41:56 51°19.752 2°57.121 66.7 11.1 66 10.4
2011-06-16 07:42:00 51°19.757 2°57.139 66.8 11.2 67 10.4
2011-06-16 07:42:06 51°19.764 2°57.167 66.8 11.2 66 10.5
2011-06-16 07:42:11 51°19.771 2°57.189 66.1 11.1 65 10.4
2011-06-16 07:42:16 51°19.777 2°57.212 66.3 11.1 66 10.4
2011-06-16 07:42:20 51°19.783 2°57.23 66.1 11.2 65 10.5
2011-06-16 07:42:25 51°19.789 2°57.252 65.9 11.2 65 10.4
2011-06-16 07:42:31 51°19.797 2°57.279 65.9 11.2 65 10.3
2011-06-16 07:42:36 51°19.803 2°57.302 65.8 11.2 65 10.4
2011-06-16 07:42:40 51°19.809 2°57.319 65.4 11.2 64 10.4
2011-06-16 07:42:45 51°19.816 2°57.342 64.9 11.2 63 10.4
2011-06-16 07:42:50 51°19.823 2°57.363 64.2 11.1 63 10.5
2011-06-16 07:42:56 51°19.832 2°57.389 63.8 11.2 61 10.4
2011-06-16 07:43:00 51°19.838 2°57.407 62.9 11.2 61 10.4
2011-06-16 07:43:05 51°19.845 2°57.428 62.1 11.2 61 10.4
2011-06-16 07:43:10 51°19.853 2°57.45 62.5 11.1 62 10.4
2011-06-16 07:43:16 51°19.862 2°57.476 62.5 11.2 59 10.4
2011-06-16 07:43:20 51°19.868 2°57.493 61.8 11.2 61 10.4
2011-06-16 07:43:26 51°19.877 2°57.519 62.2 11.1 61 10.5
2011-06-16 07:43:31 51°19.885 2°57.54 61.9 11.1 60 10.4
2011-06-16 07:43:36 51°19.892 2°57.562 62.3 11.2 61 10.5
2011-06-16 07:43:40 51°19.899 2°57.579 62 11.1 60 10.4
2011-06-16 07:43:45 51°19.906 2°57.601 62.7 11.1 63 10.4
2011-06-16 07:43:51 51°19.915 2°57.627 63.2 11.3 61 10.5
2011-06-16 07:43:56 51°19.922 2°57.649 63.2 11.2 63 10.4
2011-06-16 07:44:00 51°19.928 2°57.666 63.5 11.2 63 10.4
2011-06-16 07:44:05 51°19.935 2°57.689 64 11.2 63 10.5
2011-06-16 07:44:11 51°19.943 2°57.715 63.9 11.1 63 10.5
2011-06-16 07:44:16 51°19.95 2°57.737 64.2 11.1 63 10.4
2011-06-16 07:44:20 51°19.956 2°57.754 64.2 11.1 63 10.5
2011-06-16 07:44:26 51°19.964 2°57.781 64.2 11.2 63 10.4
2011-06-16 07:44:30 51°19.97 2°57.798 63.4 11.1 62 10.5
2011-06-16 07:44:36 51°19.978 2°57.824 63.4 11 64 10.5
2011-06-16 07:44:40 51°19.984 2°57.842 64.3 11.1 64 10.4
2011-06-16 07:44:45 51°19.991 2°57.864 64.6 11.1 63 10.5
2011-06-16 07:44:50 51°19.998 2°57.886 64.4 11.1 64 10.4
2011-06-16 07:44:56 51°20.005 2°57.913 64.9 11.2 65 10.4
2011-06-16 07:45:00 51°20.011 2°57.931 65.5 11.2 65 10.4
2011-06-16 07:45:05 51°20.016 2°57.954 66.1 11.1 67 10.5
2011-06-16 07:45:10 51°20.023 2°57.976 66.8 11 67 10.4
2011-06-16 07:45:16 51°20.029 2°58.003 68.1 11.1 69 10.4
2011-06-16 07:45:21 51°20.036 2°58.026 68.4 11.2 67 10.3
2011-06-16 07:45:26 51°20.04 2°58.049 68.6 11.1 70 10.4
2011-06-16 07:45:31 51°20.046 2°58.072 68.7 11.1 68 10.3
2011-06-16 07:45:36 51°20.052 2°58.094 68.4 11 69 10.4
2011-06-16 07:45:41 51°20.057 2°58.118 69.2 11.1 70 10.5
2011-06-16 07:45:46 51°20.063 2°58.14 69.3 11.1 68 10.3
2011-06-16 07:45:51 51°20.068 2°58.164 69.3 11.1 71 10.3
2011-06-16 07:45:56 51°20.073 2°58.186 69.6 11 69 10.3
2011-06-16 07:46:01 51°20.079 2°58.209 69.1 11.1 69 10.4
2011-06-16 07:46:05 51°20.083 2°58.227 68.4 11.1 68 10.4
2011-06-16 07:46:10 51°20.09 2°58.25 67.8 11 66 10.3
2011-06-16 07:46:16 51°20.097 2°58.276 66.9 11 65 10.4
2011-06-16 07:46:20 51°20.103 2°58.294 65.3 11.1 63 10.3
2011-06-16 07:46:25 51°20.11 2°58.316 64.7 11.1 63 10.3
2011-06-16 07:46:30 51°20.117 2°58.338 64.2 11.1 63 10.3
2011-06-16 07:46:36 51°20.126 2°58.364 63.6 11.1 61 10.2
2011-06-16 07:46:41 51°20.133 2°58.385 62.9 11.1 62 10.3
2011-06-16 07:46:45 51°20.139 2°58.403 62.5 11.1 61 10.2
2011-06-16 07:46:51 51°20.148 2°58.428 62.4 11.1 61 10.1
2011-06-16 07:46:55 51°20.154 2°58.446 62.1 11.1 62 10.3
2011-06-16 07:47:01 51°20.163 2°58.471 62 11.1 60 10.2
2011-06-16 07:47:05 51°20.169 2°58.489 61.8 11.1 63 10.3
2011-06-16 07:47:11 51°20.178 2°58.515 62.7 11.1 61 10.3
2011-06-16 07:47:16 51°20.184 2°58.536 63.1 11 63 10.2
2011-06-16 07:47:21 51°20.192 2°58.558 63.5 11.2 63 10.2
2011-06-16 07:47:26 51°20.199 2°58.58 63.8 11.2 63 10.2
2011-06-16 07:47:30 51°20.204 2°58.598 64.2 11.1 65 10.2
2011-06-16 07:47:36 51°20.211 2°58.625 66.1 11.1 66 10.3
2011-06-16 07:47:41 51°20.216 2°58.648 66.9 11.2 69 10.2
2011-06-16 07:47:46 51°20.222 2°58.671 67.9 11.2 68 10.3
2011-06-16 07:47:51 51°20.228 2°58.694 68.3 11.1 68 10.3
2011-06-16 07:47:56 51°20.234 2°58.717 69.2 11.2 68 10.2
2011-06-16 07:48:01 51°20.239 2°58.74 68.6 11.1 69 10.2
2011-06-16 07:48:06 51°20.245 2°58.763 68.6 11.2 69 10.3
2011-06-16 07:48:10 51°20.249 2°58.782 68.3 11.2 68 10.2
2011-06-16 07:48:16 51°20.256 2°58.809 68 11.1 68 10.2
2011-06-16 07:48:21 51°20.262 2°58.832 68.1 11.1 68 10.2
2011-06-16 07:48:26 51°20.268 2°58.855 68.3 11.2 67 10.2
2011-06-16 07:48:30 51°20.273 2°58.873 67 11.2 66 10.2
2011-06-16 07:48:36 51°20.28 2°58.9 66.4 11.1 65 10.2
2011-06-16 07:48:41 51°20.287 2°58.922 65.7 11.1 64 10.2
2011-06-16 07:48:46 51°20.295 2°58.944 64.5 11.1 63 10.1
2011-06-16 07:48:51 51°20.302 2°58.966 64 11.1 63 10.2
2011-06-16 07:48:56 51°20.308 2°58.988 64 11.1 64 10.1
2011-06-16 07:49:00 51°20.313 2°59.006 64.5 11.1 65 10.2
2011-06-16 07:49:05 51°20.319 2°59.029 65.1 11.1 66 10.2
2011-06-16 07:49:11 51°20.327 2°59.056 65.9 11.2 66 10.1
2011-06-16 07:49:15 51°20.332 2°59.074 66.6 11.3 67 10.2
2011-06-16 07:49:21 51°20.34 2°59.101 66.6 11.1 66 10.1
2011-06-16 07:49:26 51°20.346 2°59.124 67.1 11.1 68 10.1
2011-06-16 07:49:31 51°20.352 2°59.147 67.3 11.3 66 10.1
2011-06-16 07:49:36 51°20.358 2°59.169 66.4 11.2 66 10.1
2011-06-16 07:49:40 51°20.364 2°59.187 65.8 11.1 64 10.1
2011-06-16 07:49:46 51°20.372 2°59.214 64.7 11.1 64 10.1
2011-06-16 07:49:51 51°20.379 2°59.235 64.1 11.2 62 10.2
2011-06-16 07:49:56 51°20.387 2°59.258 63.3 11.3 62 10.2
2011-06-16 07:50:00 51°20.393 2°59.275 62.7 11.2 62 10.2
2011-06-16 07:50:05 51°20.4 2°59.297 63 11.2 63 10
2011-06-16 07:50:10 51°20.407 2°59.32 63.3 11.3 64 10
2011-06-16 07:50:16 51°20.415 2°59.347 64.2 11.3 65 10.1
2011-06-16 07:50:20 51°20.42 2°59.365 64.9 11.3 65 10.1
2011-06-16 07:50:25 51°20.426 2°59.388 65.5 11.3 67 10.2
2011-06-16 07:50:30 51°20.432 2°59.411 66.7 11.3 67 10.1
2011-06-16 07:50:36 51°20.44 2°59.438 66.9 11.3 67 10.1
2011-06-16 07:50:41 51°20.445 2°59.462 67.8 11.3 69 10.1
2011-06-16 07:50:46 51°20.451 2°59.485 68.7 11.3 69 10
2011-06-16 07:50:51 51°20.456 2°59.509 69.5 11.4 72 10.1
2011-06-16 07:50:56 51°20.461 2°59.533 70.7 11.4 72 10.1
2011-06-16 07:51:01 51°20.466 2°59.557 71.1 11.3 72 10
2011-06-16 07:51:05 51°20.469 2°59.577 72.3 11.4 75 10.1
2011-06-16 07:51:11 51°20.475 2°59.605 72.7 11.4 73 10
2011-06-16 07:51:16 51°20.478 2°59.63 72.7 11.4 76 10.1
2011-06-16 07:51:21 51°20.483 2°59.654 73.6 11.4 73 10
2011-06-16 07:51:25 51°20.486 2°59.673 73.2 11.4 75 10.1
2011-06-16 07:51:31 51°20.491 2°59.703 73.7 11.4 74 9.9
2011-06-16 07:51:36 51°20.495 2°59.727 73.8 11.4 76 9.9
2011-06-16 07:51:41 51°20.5 2°59.751 73.9 11.5 74 10.1
2011-06-16 07:51:45 51°20.503 2°59.771 73.2 11.4 74 10
2011-06-16 07:51:50 51°20.508 2°59.795 73 11.4 73 10
2011-06-16 07:51:56 51°20.514 2°59.824 72.5 11.5 72 9.9
2011-06-16 07:52:01 51°20.519 2°59.848 71.1 11.4 69 9.9
2011-06-16 07:52:05 51°20.524 2°59.867 69.7 11.4 70 9.9
2011-06-16 07:52:10 51°20.53 2°59.89 68.4 11.4 68 10
2011-06-16 07:52:16 51°20.537 2°59.918 68.3 11.3 68 9.9
2011-06-16 07:52:21 51°20.543 2°59.941 67.2 11.3 68 9.9
2011-06-16 07:52:25 51°20.547 2°59.96 67.6 11.4 67 9.9
2011-06-16 07:52:30 51°20.554 2°59.983 67 11.3 68 9.9
2011-06-16 07:52:35 51°20.559 3°0.006 67.6 11.3 69 9.9
2011-06-16 07:52:41 51°20.566 3°0.035 68.9 11.4 71 9.9
2011-06-16 07:52:46 51°20.571 3°0.059 70.3 11.5 72 10
2011-06-16 07:52:51 51°20.575 3°0.083 71.2 11.4 72 9.9
2011-06-16 07:52:56 51°20.58 3°0.107 72.4 11.3 75 9.9
2011-06-16 07:53:01 51°20.584 3°0.132 73.2 11.5 74 9.9
2011-06-16 07:53:06 51°20.589 3°0.156 72.9 11.5 74 9.8
2011-06-16 07:53:11 51°20.592 3°0.18 73.3 11.3 75 10
2011-06-16 07:53:16 51°20.597 3°0.204 73.2 11.4 73 9.9
2011-06-16 07:53:21 51°20.602 3°0.229 72.8 11.5 73 9.9
2011-06-16 07:53:26 51°20.607 3°0.253 71.9 11.4 71 10
2011-06-16 07:53:31 51°20.613 3°0.276 70.6 11.3 70 9.9
2011-06-16 07:53:36 51°20.618 3°0.3 69.5 11.3 69 9.9
2011-06-16 07:53:41 51°20.624 3°0.323 68.3 11.4 68 10
2011-06-16 07:53:46 51°20.63 3°0.346 67.5 11.3 68 10
2011-06-16 07:53:51 51°20.636 3°0.37 67.6 11.4 68 10.1
2011-06-16 07:53:56 51°20.643 3°0.393 66.9 11.3 66 10
2011-06-16 07:54:01 51°20.649 3°0.416 67 11.4 68 9.9
2011-06-16 07:54:06 51°20.655 3°0.439 66.7 11.4 66 10
2011-06-16 07:54:10 51°20.66 3°0.458 66.9 11.3 68 9.7
2011-06-16 07:54:16 51°20.667 3°0.486 67.3 11.3 68 10
2011-06-16 07:54:21 51°20.672 3°0.509 67.6 11.4 70 10
2011-06-16 07:54:26 51°20.678 3°0.533 69.1 11.4 71 10
2011-06-16 07:54:30 51°20.681 3°0.552 70 11.4 72 9.6
2011-06-16 07:54:36 51°20.686 3°0.581 71.7 11.4 75 10.2
2011-06-16 07:54:41 51°20.691 3°0.605 72.7 11.4 74 10.1
2011-06-16 07:54:46 51°20.695 3°0.63 73.3 11.4 75 10.1
2011-06-16 07:54:50 51°20.698 3°0.649 74 11.4 75 10
2011-06-16 07:54:55 51°20.702 3°0.674 73.8 11.4 75 10
2011-06-16 07:55:00 51°20.706 3°0.698 73.8 11.4 75 10
2011-06-16 07:55:07 51°20.712 3°0.732 73.7 11.4 75 9.9
2011-06-16 07:55:11 51°20.715 3°0.752 73.5 11.5 75 9.9
2011-06-16 07:55:16 51°20.72 3°0.776 72.7 11.5 73 10
2011-06-16 07:55:21 51°20.725 3°0.8 71.9 11.4 71 9.9
2011-06-16 07:55:26 51°20.73 3°0.824 70.8 11.5 71 9.9
2011-06-16 07:55:31 51°20.736 3°0.847 69.8 11.5 69 10
2011-06-16 07:55:35 51°20.741 3°0.866 68.7 11.5 69 9.9
2011-06-16 07:55:40 51°20.747 3°0.89 68 11.5 67 9.8
2011-06-16 07:55:46 51°20.754 3°0.918 67.1 11.5 68 9.8
2011-06-16 07:55:51 51°20.76 3°0.941 67.3 11.4 68 9.9
2011-06-16 07:55:55 51°20.765 3°0.96 66.8 11.5 67 10
2011-06-16 07:56:00 51°20.771 3°0.984 66.8 11.5 68 10.1
2011-06-16 07:56:06 51°20.778 3°1.011 66.8 11.4 67 10.1
2011-06-16 07:56:11 51°20.784 3°1.035 67.4 11.4 68 9.9
2011-06-16 07:56:15 51°20.789 3°1.054 67.5 11.4 69 10
2011-06-16 07:56:19 51°20.793 3°1.073 68.5 11.5 71 10
2011-06-16 07:56:26 51°20.8 3°1.107 70.5 11.5 73 10
2011-06-16 07:56:30 51°20.804 3°1.126 71.1 11.5 73 9.8
2011-06-16 07:56:35 51°20.808 3°1.151 72.1 11.5 74 9.9
2011-06-16 07:56:40 51°20.812 3°1.175 72.9 11.5 74 10
2011-06-16 07:56:45 51°20.817 3°1.2 72.7 11.4 74 9.9
2011-06-16 07:56:51 51°20.822 3°1.229 73.1 11.5 75 9.9
2011-06-16 07:56:56 51°20.826 3°1.254 73.1 11.5 74 9.8
2011-06-16 07:57:01 51°20.831 3°1.278 72.5 11.4 73 9.8
2011-06-16 07:57:06 51°20.836 3°1.301 71 11.3 70 9.8
2011-06-16 07:57:11 51°20.842 3°1.325 69.6 11.4 69 9.7
2011-06-16 07:57:16 51°20.848 3°1.349 68.5 11.4 69 9.8
2011-06-16 07:57:20 51°20.853 3°1.367 67.1 11.3 66 9.8
2011-06-16 07:57:26 51°20.86 3°1.395 66.4 11.3 69 9.8
2011-06-16 07:57:31 51°20.867 3°1.417 66.2 11.3 65 9.9
2011-06-16 07:57:36 51°20.873 3°1.44 65.2 11.3 67 9.8
2011-06-16 07:57:40 51°20.878 3°1.458 65.5 11.3 66 9.7
2011-06-16 07:57:46 51°20.886 3°1.486 65.4 11.3 66 9.7
2011-06-16 07:57:51 51°20.892 3°1.508 65.1 11.3 65 9.7
2011-06-16 07:57:56 51°20.899 3°1.531 64.9 11.3 65 9.7
2011-06-16 07:58:00 51°20.905 3°1.549 64.5 11.3 65 9.7
2011-06-16 07:58:05 51°20.911 3°1.572 64.7 11.3 65 9.7
2011-06-16 07:58:11 51°20.919 3°1.6 65 11.3 66 9.6
2011-06-16 07:58:16 51°20.925 3°1.623 66.2 11.4 67 9.7
2011-06-16 07:58:21 51°20.931 3°1.646 66.6 11.3 68 9.7
2011-06-16 07:58:25 51°20.935 3°1.665 67.4 11.3 69 9.7
2011-06-16 07:58:31 51°20.941 3°1.694 69.3 11.3 71 9.7
2011-06-16 07:58:36 51°20.946 3°1.717 70 11.4 71 9.7
2011-06-16 07:58:41 51°20.951 3°1.742 71.1 11.3 73 9.6
2011-06-16 07:58:45 51°20.955 3°1.761 71.5 11.3 72 9.7
2011-06-16 07:58:51 51°20.96 3°1.79 72 11.4 74 9.7
2011-06-16 07:58:56 51°20.964 3°1.814 72.7 11.4 73 9.7
2011-06-16 07:59:01 51°20.969 3°1.838 72.4 11.4 73 9.6
2011-06-16 07:59:05 51°20.973 3°1.857 71.6 11.4 72 9.7
2011-06-16 07:59:09 51°20.977 3°1.877 71.3 11.3 71 9.7
2011-06-16 07:59:15 51°20.984 3°1.905 70 11.4 69 9.7
2011-06-16 07:59:21 51°20.991 3°1.933 68.5 11.3 67 9.7
2011-06-16 07:59:25 51°20.996 3°1.951 67.3 11.3 67 9.7
2011-06-16 07:59:30 51°21.002 3°1.974 66.5 11.3 65 9.7
2011-06-16 07:59:36 51°21.009 3°2.002 65.8 11.4 66 9.7
2011-06-16 07:59:41 51°21.016 3°2.025 65.4 11.4 65 9.8
2011-06-16 07:59:46 51°21.022 3°2.048 65.2 11.3 66 9.9
2011-06-16 07:59:51 51°21.029 3°2.071 65.4 11.4 66 9.9
2011-06-16 07:59:56 51°21.035 3°2.094 66.4 11.4 68 9.9
2011-06-16 08:00:01 51°21.04 3°2.118 67.2 11.5 69 9.9
2011-06-16 08:00:06 51°21.046 3°2.142 68.6 11.5 70 9.9
2011-06-16 08:00:10 51°21.05 3°2.161 69.2 11.5 71 9.9
2011-06-16 08:00:16 51°21.056 3°2.19 70.3 11.4 72 10
2011-06-16 08:00:21 51°21.061 3°2.214 70.8 11.4 73 10
2011-06-16 08:00:26 51°21.066 3°2.238 71.2 11.5 72 10
2011-06-16 08:00:31 51°21.07 3°2.263 71.2 11.5 73 10
2011-06-16 08:00:36 51°21.075 3°2.287 71.4 11.4 71 9.9
2011-06-16 08:00:41 51°21.08 3°2.311 71.3 11.5 74 10.3
2011-06-16 08:00:46 51°21.085 3°2.335 71.4 11.5 71 10.3
2011-06-16 08:00:51 51°21.089 3°2.359 71.4 11.5 73 10
2011-06-16 08:00:56 51°21.094 3°2.383 71.2 11.5 71 10.1
2011-06-16 08:01:01 51°21.1 3°2.407 70.4 11.5 71 9.7
2011-06-16 08:01:06 51°21.105 3°2.431 70 11.5 71 9.8
2011-06-16 08:01:11 51°21.11 3°2.455 69.8 11.5 70 10.2
2011-06-16 08:01:16 51°21.116 3°2.479 69 11.4 70 10.3
2011-06-16 08:01:21 51°21.121 3°2.502 68.7 11.4 69 10.2
2011-06-16 08:01:26 51°21.126 3°2.526 69 11.4 71 9.9
2011-06-16 08:01:30 51°21.131 3°2.545 69.3 11.5 70 10.3
2011-06-16 08:01:36 51°21.136 3°2.575 70.4 11.5 74 10.2
2011-06-16 08:01:41 51°21.14 3°2.599 71.8 11.5 74 10.4
2011-06-16 08:01:46 51°21.144 3°2.624 72.9 11.5 76 10.3
2011-06-16 08:01:51 51°21.148 3°2.649 73.8 11.4 76 10.4
2011-06-16 08:01:56 51°21.152 3°2.673 73.8 11.5 75 10.3
2011-06-16 08:02:01 51°21.156 3°2.698 73.3 11.5 75 10.3
2011-06-16 08:02:06 51°21.16 3°2.722 73.1 11.4 76 10.3
2011-06-16 08:02:11 51°21.164 3°2.747 73.8 11.4 76 10.3
2011-06-16 08:02:16 51°21.168 3°2.771 74.1 11.4 77 10.4
2011-06-16 08:02:21 51°21.171 3°2.796 74.5 11.4 77 10.3
2011-06-16 08:02:26 51°21.174 3°2.82 74.8 11.4 77 10.3
2011-06-16 08:02:31 51°21.178 3°2.845 75.2 11.4 77 10.3
2011-06-16 08:02:36 51°21.182 3°2.87 74.9 11.5 77 10.3
2011-06-16 08:02:41 51°21.185 3°2.894 74.9 11.5 77 10.4
2011-06-16 08:02:46 51°21.189 3°2.919 74.6 11.4 75 10.3
2011-06-16 08:02:51 51°21.193 3°2.943 74 11.5 76 10.4
2011-06-16 08:02:56 51°21.197 3°2.968 73.3 11.4 74 10.5
2011-06-16 08:03:01 51°21.201 3°2.992 73.4 11.4 76 10.3
2011-06-16 08:03:06 51°21.206 3°3.016 73.4 11.5 73 10.4
2011-06-16 08:03:11 51°21.211 3°3.041 71.9 11.5 72 10.3
2011-06-16 08:03:16 51°21.216 3°3.065 71.1 11.5 71 9.9
2011-06-16 08:03:21 51°21.221 3°3.089 70.1 11.6 70 9.8
2011-06-16 08:03:26 51°21.227 3°3.113 69.4 11.6 70 10.3
2011-06-16 08:03:30 51°21.231 3°3.132 68.6 11.5 70 10.1
2011-06-16 08:03:36 51°21.238 3°3.161 68.9 11.5 71 10.4
2011-06-16 08:03:41 51°21.243 3°3.185 69.2 11.6 71 10.4
2011-06-16 08:03:46 51°21.248 3°3.21 70.5 11.6 73 10.3
2011-06-16 08:03:51 51°21.252 3°3.234 71.9 11.6 74 10.5
2011-06-16 08:03:56 51°21.256 3°3.259 72.7 11.5 76 10.2
2011-06-16 08:04:01 51°21.26 3°3.284 73.9 11.7 74 10.6
2011-06-16 08:04:06 51°21.264 3°3.309 74.1 11.7 76 10.3
2011-06-16 08:04:10 51°21.268 3°3.329 74.3 11.7 75 10
2011-06-16 08:04:16 51°21.273 3°3.359 73.9 11.7 75 10.2
2011-06-16 08:04:21 51°21.278 3°3.384 73.5 11.7 74 10.6
2011-06-16 08:04:26 51°21.283 3°3.409 72.1 11.8 72 10.5
2011-06-16 08:04:30 51°21.287 3°3.428 70.5 11.6 70 10.5
2011-06-16 08:04:36 51°21.294 3°3.457 69.8 11.6 70 10.5
2011-06-16 08:04:41 51°21.299 3°3.482 69.6 11.7 70 10.6
2011-06-16 08:04:46 51°21.305 3°3.506 69.2 11.6 69 10.4
2011-06-16 08:04:51 51°21.31 3°3.53 69.1 11.6 70 10.5
2011-06-16 08:04:56 51°21.316 3°3.553 68.7 11.5 68 10.6
2011-06-16 08:05:01 51°21.322 3°3.577 68.1 11.5 69 10.5
2011-06-16 08:05:06 51°21.328 3°3.601 68.5 11.6 69 10.5
2011-06-16 08:05:11 51°21.333 3°3.626 69.8 11.7 72 10.5
2011-06-16 08:05:16 51°21.338 3°3.651 70.6 11.6 72 10.4
2011-06-16 08:05:21 51°21.342 3°3.675 71.7 11.6 74 10.5
2011-06-16 08:05:26 51°21.347 3°3.7 72.4 11.6 73 10.6
2011-06-16 08:05:31 51°21.351 3°3.725 72.7 11.7 74 10
2011-06-16 08:05:36 51°21.356 3°3.75 73 11.7 74 10.7
2011-06-16 08:05:41 51°21.36 3°3.775 72.7 11.7 74 10.7
2011-06-16 08:05:46 51°21.365 3°3.8 73 11.6 74 10.6
2011-06-16 08:05:51 51°21.369 3°3.825 73 11.6 74 10.5
2011-06-16 08:05:56 51°21.374 3°3.849 72.9 11.7 72 10.5
2011-06-16 08:06:01 51°21.379 3°3.874 71.9 11.6 72 10.6
2011-06-16 08:06:06 51°21.385 3°3.898 71.2 11.5 71 10.6
2011-06-16 08:06:11 51°21.39 3°3.922 70.8 11.5 71 10.6
2011-06-16 08:06:16 51°21.395 3°3.946 71.2 11.5 72 10.6
2011-06-16 08:06:21 51°21.399 3°3.971 71.5 11.6 74 10.5
2011-06-16 08:06:26 51°21.403 3°3.996 72.7 11.6 74 10.6
2011-06-16 08:06:31 51°21.408 3°4.02 73.5 11.5 75 10.7
2011-06-16 08:06:36 51°21.411 3°4.045 74.2 11.5 77 10.4
2011-06-16 08:06:41 51°21.415 3°4.07 75.2 11.5 78 10.7
2011-06-16 08:06:46 51°21.418 3°4.096 76.1 11.6 78 10.5
2011-06-16 08:06:51 51°21.421 3°4.121 76.4 11.6 78 10.6
2011-06-16 08:06:56 51°21.425 3°4.146 76.5 11.5 78 10.6
2011-06-16 08:07:01 51°21.428 3°4.171 76.8 11.5 79 10.6
2011-06-16 08:07:06 51°21.431 3°4.196 77.2 11.5 79 10.6
2011-06-16 08:07:11 51°21.434 3°4.221 77 11.6 79 10.6
2011-06-16 08:07:16 51°21.438 3°4.246 76.3 11.5 77 10.5
2011-06-16 08:07:21 51°21.442 3°4.27 75.3 11.4 75 10.5
2011-06-16 08:07:26 51°21.446 3°4.295 74.1 11.4 75 10.6
2011-06-16 08:07:31 51°21.45 3°4.319 73.3 11.3 74 10.6
2011-06-16 08:07:36 51°21.455 3°4.343 72.8 11.4 73 10.6
2011-06-16 08:07:41 51°21.46 3°4.367 71.9 11.4 73 10.6
2011-06-16 08:07:46 51°21.464 3°4.391 71.3 11.4 72 10.6
2011-06-16 08:07:50 51°21.468 3°4.41 71.7 11.3 74 10.6
2011-06-16 08:07:56 51°21.474 3°4.439 71.9 11.3 71 10.6
2011-06-16 08:08:01 51°21.478 3°4.463 71.5 11.3 73 10.7
2011-06-16 08:08:06 51°21.483 3°4.487 71.5 11.3 71 10.5
2011-06-16 08:08:11 51°21.488 3°4.51 71.2 11.3 72 10.6
2011-06-16 08:08:16 51°21.493 3°4.534 71 11.3 73 10.7
2011-06-16 08:08:21 51°21.497 3°4.558 72 11.3 74 10.6
2011-06-16 08:08:26 51°21.501 3°4.583 72.9 11.4 75 10.5
2011-06-16 08:08:31 51°21.505 3°4.607 73.8 11.4 76 10.6
2011-06-16 08:08:36 51°21.508 3°4.631 74.1 11.3 77 10.6
2011-06-16 08:08:41 51°21.512 3°4.656 75.6 11.4 78 10.6
2011-06-16 08:08:46 51°21.515 3°4.681 76.1 11.4 78 10.2
2011-06-16 08:08:51 51°21.518 3°4.706 76.9 11.4 79 10.4
2011-06-16 08:08:56 51°21.52 3°4.731 77.2 11.4 79 10.6
2011-06-16 08:09:01 51°21.523 3°4.755 77.7 11.4 79 10.6
2011-06-16 08:09:06 51°21.526 3°4.78 77.6 11.4 80 10.5
2011-06-16 08:09:11 51°21.529 3°4.805 77.8 11.4 80 10.6
2011-06-16 08:09:16 51°21.532 3°4.83 78.1 11.3 80 10.4
2011-06-16 08:09:21 51°21.535 3°4.855 77.8 11.3 79 10.4
2011-06-16 08:09:26 51°21.538 3°4.879 76.4 11.3 77 10.5
2011-06-16 08:09:30 51°21.541 3°4.898 75.7 11.3 77 10.4
2011-06-16 08:09:36 51°21.545 3°4.928 75.4 11.4 77 10.4
2011-06-16 08:09:41 51°21.549 3°4.952 75.2 11.4 78 10.4
2011-06-16 08:09:46 51°21.552 3°4.977 75.7 11.4 78 10.4
2011-06-16 08:09:51 51°21.555 3°5.001 76.3 11.3 78 10.4
2011-06-16 08:09:56 51°21.558 3°5.026 76.3 11.3 78 10.4
2011-06-16 08:10:01 51°21.562 3°5.05 76.1 11.3 77 10.3
2011-06-16 08:10:06 51°21.566 3°5.075 75.3 11.3 77 10.4
2011-06-16 08:10:10 51°21.569 3°5.094 74.8 11.3 76 10.4
2011-06-16 08:10:16 51°21.573 3°5.123 74.1 11.3 76 10.4
2011-06-16 08:10:21 51°21.578 3°5.147 73.8 11.3 74 10.3
2011-06-16 08:10:26 51°21.583 3°5.17 72.5 11.3 72 10.3
2011-06-16 08:10:30 51°21.587 3°5.19 71.5 11.3 72 10.3
2011-06-16 08:10:36 51°21.592 3°5.218 71.1 11.3 72 10.3
2011-06-16 08:10:41 51°21.597 3°5.242 71.2 11.3 71 10.3
2011-06-16 08:10:46 51°21.602 3°5.265 70.4 11.3 72 10.3
2011-06-16 08:10:51 51°21.607 3°5.289 70.9 11.3 72 10.3
2011-06-16 08:10:56 51°21.612 3°5.313 70.7 11.2 72 10.3
2011-06-16 08:11:01 51°21.617 3°5.337 71.2 11.3 73 10.3
2011-06-16 08:11:06 51°21.621 3°5.361 71.7 11.3 72 10.5
2011-06-16 08:11:11 51°21.625 3°5.385 72.5 11.2 75 10.4
2011-06-16 08:11:16 51°21.63 3°5.408 72.5 11.3 73 10.3
2011-06-16 08:11:21 51°21.634 3°5.432 72.4 11.3 75 10.4
2011-06-16 08:11:26 51°21.638 3°5.457 73.4 11.3 75 10.5
2011-06-16 08:11:31 51°21.641 3°5.481 74.8 11.4 77 10.3
2011-06-16 08:11:36 51°21.644 3°5.506 75.8 11.4 79 10.4
2011-06-16 08:11:41 51°21.647 3°5.531 77.2 11.4 81 10.5
2011-06-16 08:11:46 51°21.649 3°5.556 78.5 11.4 81 10.4
2011-06-16 08:11:50 51°21.651 3°5.576 79.5 11.3 82 10.4
2011-06-16 08:11:56 51°21.654 3°5.606 79.6 11.4 81 10.5
2011-06-16 08:12:01 51°21.657 3°5.631 79.3 11.5 81 10.5
2011-06-16 08:12:06 51°21.659 3°5.656 79.3 11.4 81 10.5
2011-06-16 08:12:10 51°21.661 3°5.676 79.3 11.4 80 10.4
2011-06-16 08:12:16 51°21.665 3°5.706 78.2 11.3 79 10.5
2011-06-16 08:12:21 51°21.668 3°5.73 77 11.3 78 10.4
2011-06-16 08:12:26 51°21.672 3°5.754 76.5 11.3 77 10.4
2011-06-16 08:12:31 51°21.676 3°5.779 75 11.4 76 10.4
2011-06-16 08:12:36 51°21.68 3°5.803 74.6 11.4 74 10.4
2011-06-16 08:12:41 51°21.685 3°5.827 73.6 11.4 74 10.4
2011-06-16 08:12:46 51°21.689 3°5.851 73.5 11.3 74 10.5
2011-06-16 08:12:50 51°21.692 3°5.871 73 11.4 74 10.6
2011-06-16 08:12:56 51°21.698 3°5.9 72.9 11.5 74 10.5
2011-06-16 08:13:01 51°21.701 3°5.925 73.9 11.5 76 10.4
2011-06-16 08:13:06 51°21.705 3°5.949 75.5 11.5 78 10.5
2011-06-16 08:13:11 51°21.707 3°5.975 77 11.5 80 10.4
2011-06-16 08:13:16 51°21.71 3°6 78.3 11.6 81 10.7
2011-06-16 08:13:21 51°21.713 3°6.025 78.8 11.6 80 10.3
2011-06-16 08:13:26 51°21.716 3°6.05 78.9 11.6 80 10.5
2011-06-16 08:13:31 51°21.718 3°6.076 79.2 11.6 81 10.6
2011-06-16 08:13:36 51°21.721 3°6.101 78.9 11.5 79 10.5
2011-06-16 08:13:41 51°21.724 3°6.126 77.9 11.5 78 10.5
2011-06-16 08:13:46 51°21.728 3°6.15 77.3 11.5 77 10.6
2011-06-16 08:13:50 51°21.731 3°6.17 75.8 11.4 76 10.6
2011-06-16 08:13:56 51°21.736 3°6.199 75.3 11.5 76 10.7
2011-06-16 08:14:01 51°21.74 3°6.224 75.2 11.5 76 10.6
2011-06-16 08:14:06 51°21.744 3°6.249 74.9 11.5 75 10.7
2011-06-16 08:14:11 51°21.748 3°6.273 74.3 11.5 75 10.6
2011-06-16 08:14:16 51°21.752 3°6.298 74.7 11.5 76 10.8
2011-06-16 08:14:21 51°21.755 3°6.323 75.6 11.6 78 10.7
2011-06-16 08:14:26 51°21.758 3°6.348 77.1 11.6 80 10.8
2011-06-16 08:14:31 51°21.761 3°6.373 78 11.5 79 10.8
2011-06-16 08:14:36 51°21.764 3°6.398 78.5 11.5 80 10.7
2011-06-16 08:14:41 51°21.767 3°6.423 78.6 11.6 79 10.8
2011-06-16 08:14:46 51°21.77 3°6.449 78.5 11.5 79 10.8
2011-06-16 08:14:50 51°21.772 3°6.469 78.2 11.5 79 10.9
2011-06-16 08:14:56 51°21.776 3°6.499 77.7 11.5 79 10.8
2011-06-16 08:15:01 51°21.779 3°6.524 77.7 11.5 79 10.8
2011-06-16 08:15:06 51°21.782 3°6.549 77.7 11.5 79 10.9
2011-06-16 08:15:11 51°21.785 3°6.574 77.7 11.6 79 10.8
2011-06-16 08:15:16 51°21.789 3°6.599 77.4 11.5 77 10.9
2011-06-16 08:15:21 51°21.792 3°6.624 76.9 11.6 79 10.8
2011-06-16 08:15:26 51°21.795 3°6.649 77.2 11.6 78 10.8
2011-06-16 08:15:30 51°21.798 3°6.669 77.5 11.6 79 10.9
2011-06-16 08:15:36 51°21.801 3°6.7 78.1 11.7 80 10.8
2011-06-16 08:15:41 51°21.804 3°6.725 78.8 11.7 80 10.8
2011-06-16 08:15:46 51°21.806 3°6.751 79.5 11.7 82 10.9
2011-06-16 08:15:51 51°21.808 3°6.777 80.4 11.7 82 10.9
2011-06-16 08:15:56 51°21.81 3°6.803 81.6 11.8 84 11
2011-06-16 08:16:01 51°21.812 3°6.828 82.1 11.7 84 10.9
2011-06-16 08:16:06 51°21.813 3°6.854 82.5 11.7 84 10.9
2011-06-16 08:16:11 51°21.814 3°6.88 83 11.7 85 10.9
2011-06-16 08:16:16 51°21.816 3°6.906 83.3 11.7 84 10.9
2011-06-16 08:16:21 51°21.817 3°6.932 83.3 11.7 85 10.9
2011-06-16 08:16:26 51°21.819 3°6.957 83.4 11.6 85 10.9
2011-06-16 08:16:30 51°21.82 3°6.978 83.8 11.6 85 11
2011-06-16 08:16:36 51°21.822 3°7.009 83.6 11.7 85 11
2011-06-16 08:16:41 51°21.824 3°7.035 82.8 11.7 82 11
2011-06-16 08:16:46 51°21.826 3°7.061 81.5 11.7 83 11
2011-06-16 08:16:51 51°21.828 3°7.086 81.4 11.7 82 10.9